Time;durP1;ratioP1;P1;durP2;ratioP2;P2;SDS_P1;SDS_P2;PMS_P1;PMS_P2;Temp;Humidity;BMP_temperature;BMP_pressure;BME280_temperature;BME280_humidity;BME280_pressure;Samples;Min_cycle;Max_cycle;Signal;HPM_P1;HPM_P2
2022/07/23 00:00:25;;;;;;;;;16.67;15.67;;;;;27.75;50.40;98475.94;4856298;28;102607;-96
2022/07/23 00:02:52;;;;;;;;;14.33;14.00;;;;;27.77;50.87;98479.22;4848428;28;103961;-95
2022/07/23 00:05:19;;;;;;;;;14.00;13.00;;;;;27.75;50.15;98487.88;4856771;28;103014;-96
2022/07/23 00:07:46;;;;;;;;;14.33;13.67;;;;;27.73;50.72;98486.56;4834465;28;104442;-95
2022/07/23 00:10:13;;;;;;;;;15.00;15.00;;;;;27.73;50.73;98487.38;4828560;28;102243;-96
2022/07/23 00:12:41;;;;;;;;;16.67;15.67;;;;;27.74;50.62;98494.56;4863691;28;102804;-96
2022/07/23 00:15:18;;;;;;;;;15.33;14.67;;;;;27.74;50.59;98496.53;4887394;28;104150;-95
2022/07/23 00:17:47;;;;;;;;;18.33;16.00;;;;;27.73;50.46;98498.50;4845370;28;102244;-96
2022/07/23 00:20:14;;;;;;;;;15.67;15.67;;;;;27.76;51.12;98505.38;4851439;28;102310;-95
2022/07/23 00:22:54;;;;;;;;;16.67;16.00;;;;;27.73;50.68;98506.84;4864711;28;102678;-94
2022/07/23 00:25:24;;;;;;;;;14.33;12.33;;;;;27.74;50.30;98502.91;4839945;28;109484;-96
2022/07/23 00:27:57;;;;;;;;;17.33;16.00;;;;;27.74;50.35;98510.44;4872229;28;102917;-95
2022/07/23 00:30:25;;;;;;;;;13.00;12.33;;;;;27.68;50.71;98489.47;4890900;28;102400;-95
2022/07/23 00:32:56;;;;;;;;;15.00;14.00;;;;;27.70;50.44;98484.41;4887249;28;102575;-95
2022/07/23 00:35:28;;;;;;;;;15.67;14.67;;;;;27.68;50.17;98486.69;4911233;28;109033;-95
2022/07/23 00:37:55;;;;;;;;;16.33;15.00;;;;;27.68;50.22;98490.28;4891805;28;102463;-95
2022/07/23 00:40:28;;;;;;;;;19.33;15.67;;;;;27.64;50.21;98485.69;4859335;28;102699;-96
2022/07/23 00:42:55;;;;;;;;;16.67;15.67;;;;;27.67;50.61;98487.81;4920207;28;102199;-96
2022/07/23 00:45:22;;;;;;;;;14.00;14.00;;;;;27.65;50.35;98490.09;4865505;28;107698;-95
2022/07/23 00:47:50;;;;;;;;;16.00;14.33;;;;;27.65;50.41;98488.13;4873931;28;102793;-95
2022/07/23 00:50:17;;;;;;;;;15.00;14.00;;;;;27.65;50.30;98487.31;4877570;28;102845;-95
2022/07/23 00:52:44;;;;;;;;;14.67;13.00;;;;;27.65;50.50;98490.09;4882712;28;102250;-95
2022/07/23 00:55:11;;;;;;;;;13.67;12.33;;;;;27.65;50.56;98493.66;4880602;28;103260;-95
2022/07/23 00:57:39;;;;;;;;;14.33;13.67;;;;;27.65;50.94;98490.09;4911019;28;102167;-96
2022/07/23 01:00:08;;;;;;;;;12.00;12.00;;;;;27.64;50.47;98492.06;4887232;28;102516;-95
2022/07/23 01:02:35;;;;;;;;;16.00;15.00;;;;;27.63;50.47;98484.03;4850029;28;102071;-96
2022/07/23 01:05:02;;;;;;;;;15.00;12.67;;;;;27.60;50.11;98493.81;4877248;28;108562;-96
2022/07/23 01:07:37;;;;;;;;;14.00;14.00;;;;;27.62;50.08;98487.94;4856298;28;102502;-96
2022/07/23 01:10:30;;;;;;;;;15.00;14.67;;;;;27.63;50.55;98490.41;4834817;28;102421;-96
2022/07/23 01:12:53;;;;;;;;;15.33;14.67;;;;;27.62;50.04;98487.94;4867635;28;103768;-95
2022/07/23 01:15:21;;;;;;;;;15.00;14.00;;;;;27.61;50.26;98491.84;4856812;28;102913;-95
2022/07/23 01:17:49;;;;;;;;;17.33;16.00;;;;;27.58;50.08;98486.94;4854179;28;102568;-95
2022/07/23 01:20:16;;;;;;;;;15.00;13.67;;;;;27.59;50.46;98494.13;4852753;28;102873;-95
2022/07/23 01:22:53;;;;;;;;;15.67;14.67;;;;;27.59;50.06;98492.19;4857606;28;102309;-95
2022/07/23 01:25:21;;;;;;;;;13.33;13.00;;;;;27.60;50.19;98501.34;4842827;28;104009;-95
2022/07/23 01:27:49;;;;;;;;;15.67;13.33;;;;;27.57;50.72;98490.84;4887534;28;103225;-95
2022/07/23 01:30:21;;;;;;;;;16.00;15.00;;;;;27.56;50.45;98492.00;4847386;28;102598;-96
2022/07/23 01:32:48;;;;;;;;;17.33;16.00;;;;;27.58;50.55;98486.94;4867028;28;103336;-95
2022/07/23 01:35:15;;;;;;;;;18.33;17.67;;;;;27.57;50.15;98482.50;4885816;28;104071;-95
2022/07/23 01:37:43;;;;;;;;;15.00;13.00;;;;;27.59;50.15;98488.56;4886348;28;102271;-95
2022/07/23 01:40:14;;;;;;;;;17.00;13.00;;;;;27.55;50.19;98470.91;4890295;28;102491;-95
2022/07/23 01:42:43;;;;;;;;;16.33;16.33;;;;;27.54;50.46;98474.81;4899406;28;102514;-96
2022/07/23 01:45:11;;;;;;;;;13.67;12.67;;;;;27.55;50.19;98482.84;4867462;28;104705;-95
2022/07/23 01:47:38;;;;;;;;;13.33;12.00;;;;;27.55;50.02;98482.00;4844180;28;105080;-96
2022/07/23 01:50:05;;;;;;;;;14.33;13.33;;;;;27.55;49.96;98479.22;4861328;28;103825;-95
2022/07/23 01:52:33;;;;;;;;;15.33;13.67;;;;;27.55;50.22;98470.91;4891294;28;102768;-96
2022/07/23 01:55:00;;;;;;;;;14.67;13.00;;;;;27.51;50.51;98485.38;4876000;28;104475;-96
2022/07/23 01:57:27;;;;;;;;;13.33;13.33;;;;;27.54;50.22;98491.47;4855613;28;102565;-95
2022/07/23 01:59:54;;;;;;;;;17.00;15.00;;;;;27.54;50.13;98486.75;4883010;28;102313;-96
2022/07/23 02:02:21;;;;;;;;;15.33;14.33;;;;;27.52;50.08;98495.38;4888968;28;103450;-96
2022/07/23 02:04:48;;;;;;;;;13.33;12.33;;;;;27.48;50.16;98472.16;4891862;28;105372;-96
2022/07/23 02:07:15;;;;;;;;;12.67;11.33;;;;;27.51;49.97;98493.72;4853209;28;102596;-96
2022/07/23 02:09:43;;;;;;;;;15.00;14.67;;;;;27.48;50.45;98483.25;4899692;28;105195;-96
2022/07/23 02:12:10;;;;;;;;;16.00;16.00;;;;;27.49;50.39;98482.13;4874631;28;102238;-95
2022/07/23 02:14:37;;;;;;;;;11.00;11.00;;;;;27.47;49.89;98486.31;4862001;28;104065;-95
2022/07/23 02:17:05;;;;;;;;;14.00;13.00;;;;;27.45;49.86;98478.31;4874775;28;102525;-95
2022/07/23 02:19:32;;;;;;;;;15.00;15.00;;;;;27.46;50.13;98495.78;4826210;28;102224;-96
2022/07/23 02:21:59;;;;;;;;;13.33;11.67;;;;;27.49;50.07;98496.00;4896909;28;102517;-96
2022/07/23 02:24:26;;;;;;;;;13.67;12.67;;;;;27.49;50.29;98496.00;4877832;28;107495;-96
2022/07/23 02:26:53;;;;;;;;;13.33;13.33;;;;;27.48;50.42;98499.09;4890294;28;102559;-96
2022/07/23 02:29:20;;;;;;;;;14.00;13.67;;;;;27.49;50.10;98501.56;4901272;28;102546;-96
2022/07/23 02:31:47;;;;;;;;;14.33;13.67;;;;;27.46;50.16;98495.78;4865249;28;102474;-95
2022/07/23 02:34:15;;;;;;;;;15.33;14.33;;;;;27.45;49.99;98494.97;4838734;28;104920;-96
2022/07/23 02:36:42;;;;;;;;;11.00;11.00;;;;;27.46;50.47;98507.72;4877074;28;102268;-96
2022/07/23 02:39:09;;;;;;;;;12.67;12.00;;;;;27.44;49.93;98493.31;4844014;28;102489;-96
2022/07/23 02:41:36;;;;;;;;;14.33;13.00;;;;;27.41;50.21;98491.19;4883839;28;102190;-96
2022/07/23 02:44:03;;;;;;;;;16.00;14.00;;;;;27.44;50.25;98498.88;4898445;28;104845;-96
2022/07/23 02:46:30;;;;;;;;;14.67;13.67;;;;;27.43;50.32;98500.00;4862227;28;102729;-96
2022/07/23 02:48:58;;;;;;;;;13.67;12.33;;;;;27.42;50.32;98495.56;4862350;28;102290;-96
2022/07/23 02:51:25;;;;;;;;;13.67;13.67;;;;;27.41;50.28;98493.97;4885259;28;102635;-96
2022/07/23 02:53:53;;;;;;;;;14.67;14.33;;;;;27.42;50.16;98490.03;4861930;28;104556;-96
2022/07/23 02:56:20;;;;;;;;;10.67;10.67;;;;;27.40;49.98;98489.53;4875368;28;102434;-96
2022/07/23 02:58:47;;;;;;;;;15.00;14.33;;;;;27.41;50.34;98482.03;4907624;28;102499;-96
2022/07/23 03:01:14;;;;;;;;;13.00;13.00;;;;;27.42;50.28;98484.47;4877771;28;102267;-96
2022/07/23 03:03:46;;;;;;;;;16.00;15.00;;;;;27.38;50.31;98477.06;4890263;28;105431;-95
2022/07/23 03:06:13;;;;;;;;;15.67;14.00;;;;;27.39;50.42;98482.31;4861817;28;102846;-96
2022/07/23 03:08:40;;;;;;;;;13.00;13.00;;;;;27.39;50.30;98474.00;4893689;28;102467;-96
2022/07/23 03:11:10;;;;;;;;;15.00;11.67;;;;;27.42;49.95;98478.91;4888798;28;102675;-95
2022/07/23 03:13:38;;;;;;;;;15.33;12.67;;;;;27.40;50.24;98478.41;4880528;28;105529;-95
2022/07/23 03:16:05;;;;;;;;;7.33;7.33;;;;;27.40;50.10;98464.53;4918671;28;102141;-95
2022/07/23 03:18:33;;;;;;;;;12.67;12.33;;;;;27.37;50.28;98467.13;4857551;28;102362;-96
2022/07/23 03:21:06;;;;;;;;;14.00;14.00;;;;;27.37;49.99;98459.63;4879469;28;102527;-95
2022/07/23 03:23:33;;;;;;;;;13.33;12.67;;;;;27.40;50.09;98472.88;4892933;28;104023;-95
2022/07/23 03:26:01;;;;;;;;;12.00;11.00;;;;;27.36;50.23;98471.84;4889492;28;102723;-96
2022/07/23 03:28:28;;;;;;;;;15.33;14.67;;;;;27.37;50.25;98475.47;4883617;28;102551;-96
2022/07/23 03:30:55;;;;;;;;;16.00;14.67;;;;;27.38;50.05;98483.44;4891792;28;102189;-96
2022/07/23 03:33:28;;;;;;;;;16.33;14.67;;;;;27.37;50.23;98467.94;4915031;28;105458;-96
2022/07/23 03:35:55;;;;;;;;;13.00;12.33;;;;;27.38;50.30;98464.00;4885025;28;102400;-96
2022/07/23 03:38:23;;;;;;;;;13.33;13.33;;;;;27.36;49.98;98460.75;4857104;28;102440;-96
2022/07/23 03:40:53;;;;;;;;;12.00;12.00;;;;;27.35;50.11;98467.44;4899782;28;102293;-96
2022/07/23 03:43:20;;;;;;;;;13.33;13.00;;;;;27.34;50.40;98476.88;4869165;28;104006;-96
2022/07/23 03:45:47;;;;;;;;;15.00;14.00;;;;;27.34;50.31;98464.94;4853478;28;102486;-96
2022/07/23 03:48:14;;;;;;;;;14.00;12.67;;;;;27.33;50.14;98468.88;4877450;28;102188;-96
2022/07/23 03:50:41;;;;;;;;;11.00;11.00;;;;;27.35;50.24;98461.88;4845766;28;103602;-96
2022/07/23 03:53:08;;;;;;;;;12.00;12.00;;;;;27.30;50.21;98455.59;4843058;28;105265;-96
2022/07/23 03:55:45;;;;;;;;;15.33;14.00;;;;;27.35;49.84;98466.59;4869338;28;102502;-96
2022/07/23 03:58:12;;;;;;;;;15.67;14.67;;;;;27.34;50.17;98474.09;4875621;28;102175;-95
2022/07/23 04:00:42;;;;;;;;;16.00;15.67;;;;;27.33;50.30;98472.47;4867962;28;102488;-95
2022/07/23 04:03:09;;;;;;;;;12.00;11.67;;;;;27.33;50.12;98483.56;4857763;28;104444;-95
2022/07/23 04:05:36;;;;;;;;;14.33;13.67;;;;;27.33;50.15;98485.56;4881387;28;102428;-96
2022/07/23 04:08:04;;;;;;;;;15.67;13.33;;;;;27.32;50.50;98475.56;4888174;28;102598;-96
2022/07/23 04:10:32;;;;;;;;;13.00;12.00;;;;;27.33;50.20;98478.00;4913193;28;102121;-96
2022/07/23 04:12:59;;;;;;;;;14.33;14.33;;;;;27.31;49.90;98471.97;4882628;28;103557;-96
2022/07/23 04:15:27;;;;;;;;;14.00;13.00;;;;;27.32;50.54;98484.72;4872023;28;102081;-96
2022/07/23 04:17:54;;;;;;;;;15.00;13.33;;;;;27.30;50.20;98480.59;4889562;28;102691;-96
2022/07/23 04:20:21;;;;;;;;;13.33;13.33;;;;;27.30;50.18;98480.59;4891156;28;102177;-95
2022/07/23 04:22:48;;;;;;;;;11.33;11.33;;;;;27.30;50.44;98478.66;4891884;28;104379;-95
2022/07/23 04:25:17;;;;;;;;;14.00;13.00;;;;;27.32;50.57;98481.13;4915364;28;101841;-96
2022/07/23 04:27:44;;;;;;;;;13.00;12.67;;;;;27.33;50.02;98478.00;4892701;28;101790;-96
2022/07/23 04:30:11;;;;;;;;;16.00;14.33;;;;;27.29;50.23;98476.22;4880958;28;102100;-96
2022/07/23 04:32:38;;;;;;;;;17.33;15.00;;;;;27.30;49.58;98473.09;4914477;28;104844;-96
2022/07/23 04:35:05;;;;;;;;;15.33;14.00;;;;;27.29;50.19;98479.78;4875651;28;102080;-95
2022/07/23 04:37:32;;;;;;;;;12.00;12.00;;;;;27.33;50.20;98483.56;4894477;28;102860;-96
2022/07/23 04:40:00;;;;;;;;;12.00;11.67;;;;;27.33;50.15;98478.00;4891725;28;102296;-96
2022/07/23 04:42:27;;;;;;;;;12.33;12.33;;;;;27.32;50.46;98475.56;4895674;28;103774;-96
2022/07/23 04:44:54;;;;;;;;;8.67;8.67;;;;;27.31;50.26;98471.16;4901483;28;102164;-96
2022/07/23 04:47:21;;;;;;;;;16.67;13.67;;;;;27.33;50.32;98480.00;4892718;28;102256;-96
2022/07/23 04:49:53;;;;;;;;;15.67;14.67;;;;;27.31;50.27;98471.97;4869792;28;103094;-96
2022/07/23 04:52:20;;;;;;;;;15.00;13.67;;;;;27.31;50.46;98477.53;4889200;28;104396;-96
2022/07/23 04:54:47;;;;;;;;;16.00;15.00;;;;;27.30;50.58;98462.00;4864080;28;102128;-96
2022/07/23 04:57:14;;;;;;;;;12.67;12.67;;;;;27.32;50.25;98473.63;4879526;28;102172;-96
2022/07/23 04:59:41;;;;;;;;;12.00;11.00;;;;;27.31;50.36;98471.97;4894992;28;102764;-96
2022/07/23 05:02:08;;;;;;;;;13.00;13.00;;;;;27.31;50.99;98483.06;4895349;28;104085;-96
2022/07/23 05:04:36;;;;;;;;;14.00;13.67;;;;;27.29;50.72;98473.44;4876859;28;102361;-96
2022/07/23 05:07:03;;;;;;;;;14.00;13.67;;;;;27.28;50.52;98472.59;4876166;28;102041;-96
2022/07/23 05:09:30;;;;;;;;;13.00;13.00;;;;;27.28;50.27;98483.72;4874312;28;102619;-96
2022/07/23 05:11:57;;;;;;;;;13.67;13.00;;;;;27.30;50.43;98478.66;4873899;28;105650;-96
2022/07/23 05:14:24;;;;;;;;;14.00;13.00;;;;;27.28;51.07;98478.16;4846414;28;102203;-96
2022/07/23 05:16:52;;;;;;;;;12.00;11.67;;;;;27.30;50.80;98475.03;4878527;28;102368;-96
2022/07/23 05:19:19;;;;;;;;;13.67;12.33;;;;;27.31;51.19;98477.53;4885544;28;103551;-96
2022/07/23 05:21:50;;;;;;;;;12.33;12.33;;;;;27.30;50.88;98475.88;4868841;28;105327;-96
2022/07/23 05:24:17;;;;;;;;;13.33;12.67;;;;;27.29;50.42;98474.22;4866130;28;103101;-96
2022/07/23 05:27:00;;;;;;;;;13.00;12.00;;;;;27.30;51.30;98473.09;4886457;28;103845;-96
2022/07/23 05:29:28;;;;;;;;;13.67;12.67;;;;;27.29;51.19;98465.09;4871826;28;102882;-96
2022/07/23 05:31:55;;;;;;;;;13.00;13.00;;;;;27.32;51.10;98472.78;4884549;28;105539;-96
2022/07/23 05:34:22;;;;;;;;;16.00;15.00;;;;;27.34;51.17;98476.88;4880018;28;102407;-96
2022/07/23 05:36:49;;;;;;;;;12.33;12.00;;;;;27.36;51.29;98482.13;4874460;28;102399;-96
2022/07/23 05:39:16;;;;;;;;;11.33;11.33;;;;;27.33;51.33;98475.25;4895888;28;102523;-95
2022/07/23 05:41:43;;;;;;;;;12.67;12.00;;;;;27.36;51.16;98471.03;4887727;28;104051;-96
2022/07/23 05:44:10;;;;;;;;;15.00;13.33;;;;;27.35;51.33;98472.16;4894823;28;102168;-96
2022/07/23 05:46:37;;;;;;;;;11.33;11.33;;;;;27.33;51.13;98453.03;4871284;28;102635;-96
2022/07/23 05:49:04;;;;;;;;;15.33;14.67;;;;;27.34;51.42;98456.63;4843820;28;102521;-96
2022/07/23 05:51:32;;;;;;;;;15.00;14.67;;;;;27.34;51.34;98451.91;4856959;28;102824;-96
2022/07/23 05:54:00;;;;;;;;;16.00;13.33;;;;;27.35;51.59;98442.44;4896424;28;109712;-96
2022/07/23 05:56:27;;;;;;;;;13.67;13.00;;;;;27.34;51.41;98438.00;4865781;28;102392;-96
2022/07/23 05:58:54;;;;;;;;;14.00;14.00;;;;;27.35;51.34;98448.00;4931059;28;102261;-96
2022/07/23 06:01:21;;;;;;;;;14.00;14.00;;;;;27.37;51.40;98444.91;4906971;28;103716;-96
2022/07/23 06:03:48;;;;;;;;;13.67;13.00;;;;;27.36;51.83;98435.75;4930221;28;103750;-96
2022/07/23 06:06:16;;;;;;;;;17.67;16.00;;;;;27.40;51.52;98433.97;4879368;28;103812;-96
2022/07/23 06:08:43;;;;;;;;;13.00;12.33;;;;;27.40;51.00;98427.59;4881691;28;102161;-96
2022/07/23 06:11:10;;;;;;;;;11.33;11.00;;;;;27.41;50.44;98432.84;4886784;28;102627;-96
2022/07/23 06:13:37;;;;;;;;;12.67;11.00;;;;;27.36;51.41;98421.03;4905343;28;101768;-96
2022/07/23 06:16:04;;;;;;;;;13.67;12.33;;;;;27.39;50.99;98429.56;4883838;28;101772;-96
2022/07/23 06:18:31;;;;;;;;;14.33;13.67;;;;;27.38;50.98;98422.34;4891585;28;101931;-96
2022/07/23 06:20:59;;;;;;;;;12.00;12.00;;;;;27.44;50.78;98420.28;4912499;28;103777;-96
2022/07/23 06:23:26;;;;;;;;;14.67;13.67;;;;;27.41;51.21;98416.19;4937476;28;102201;-96
2022/07/23 06:25:53;;;;;;;;;14.33;12.33;;;;;27.44;50.88;98407.22;4905954;28;102378;-96
2022/07/23 06:28:20;;;;;;;;;14.33;13.00;;;;;27.46;50.95;98407.75;4899429;28;103520;-96
2022/07/23 06:30:59;;;;;;;;;11.33;11.00;;;;;27.47;50.76;98408.53;4891804;28;103491;-96
2022/07/23 06:33:28;;;;;;;;;13.00;12.67;;;;;27.46;51.15;98407.75;4894701;28;102192;-96
2022/07/23 06:35:55;;;;;;;;;12.00;11.00;;;;;27.46;50.90;98406.91;4907315;28;102385;-96
2022/07/23 06:38:22;;;;;;;;;13.00;12.33;;;;;27.48;51.17;98410.22;4916803;28;101751;-96
2022/07/23 06:40:50;;;;;;;;;14.67;13.00;;;;;27.48;51.15;98405.47;4887225;28;104780;-96
2022/07/23 06:43:17;;;;;;;;;13.00;12.33;;;;;27.48;51.17;98405.47;4893597;28;101838;-96
2022/07/23 06:45:44;;;;;;;;;14.00;12.33;;;;;27.50;50.98;98402.41;4924782;28;101933;-96
2022/07/23 06:48:11;;;;;;;;;13.00;12.33;;;;;27.46;51.14;98396.63;4878746;28;102966;-96
2022/07/23 06:50:38;;;;;;;;;15.67;12.33;;;;;27.45;51.48;98392.22;4866605;28;103642;-96
2022/07/23 06:53:06;;;;;;;;;16.67;11.33;;;;;27.48;51.22;98399.09;4901321;28;102434;-96
2022/07/23 06:55:42;;;;;;;;;14.33;14.33;;;;;27.48;51.21;98399.94;4878888;28;103496;-96
2022/07/23 06:58:09;;;;;;;;;14.00;13.00;;;;;27.47;51.44;98402.97;4860775;28;102565;-96
2022/07/23 07:00:37;;;;;;;;;11.00;10.33;;;;;27.48;51.02;98407.44;4889823;28;105104;-96
2022/07/23 07:03:04;;;;;;;;;15.67;13.00;;;;;27.46;51.03;98407.75;4846589;28;102362;-96
2022/07/23 07:05:31;;;;;;;;;11.67;11.67;;;;;27.47;51.23;98400.19;4872322;28;102831;-96
2022/07/23 07:07:58;;;;;;;;;12.67;12.67;;;;;27.47;51.47;98411.31;4899944;28;102438;-96
2022/07/23 07:10:26;;;;;;;;;12.67;12.00;;;;;27.49;50.99;98404.34;4862965;28;105244;-96
2022/07/23 07:12:55;;;;;;;;;11.67;11.33;;;;;27.49;51.11;98414.63;4879023;28;104191;-96
2022/07/23 07:15:23;;;;;;;;;11.33;11.33;;;;;27.50;51.17;98410.72;4901733;28;102568;-96
2022/07/23 07:17:50;;;;;;;;;13.33;12.67;;;;;27.48;51.08;98413.81;4874731;28;102256;-96
2022/07/23 07:20:17;;;;;;;;;13.33;12.67;;;;;27.48;50.86;98422.16;4871030;28;104689;-96
2022/07/23 07:22:45;;;;;;;;;13.00;13.00;;;;;27.44;51.07;98415.56;4883955;28;102658;-96
2022/07/23 07:25:12;;;;;;;;;10.33;9.00;;;;;27.47;50.91;98403.81;4882876;28;102637;-96
2022/07/23 07:27:40;;;;;;;;;14.33;12.33;;;;;27.53;51.19;98398.97;4874129;28;102696;-96
2022/07/23 07:42:48;;;;;;;;;18.00;17.00;;;;;27.57;51.30;98399.16;5056277;27;102050;-60
2022/07/23 07:45:15;;;;;;;;;15.33;15.33;;;;;27.59;50.93;98403.28;5058262;22;104120;-77
2022/07/23 07:47:43;;;;;;;;;20.00;18.00;;;;;27.58;51.37;98417.47;4994904;28;103019;-77
2022/07/23 07:50:11;;;;;;;;;20.00;17.33;;;;;27.59;50.63;98416.34;4998558;27;105106;-77
2022/07/23 07:52:41;;;;;;;;;15.67;15.00;;;;;27.61;51.26;98425.16;5010815;27;102853;-75
2022/07/23 07:55:08;;;;;;;;;17.00;16.00;;;;;27.62;51.15;98418.47;4995930;28;102319;-75
2022/07/23 07:57:36;;;;;;;;;16.00;14.33;;;;;27.62;51.06;98421.25;5002301;27;104073;-75
2022/07/23 08:00:07;;;;;;;;;17.67;15.00;;;;;27.63;51.08;98412.63;4999445;28;103302;-75
2022/07/23 08:02:48;;;;;;;;;16.33;16.33;;;;;27.62;50.56;98410.97;4998401;27;102232;-75
2022/07/23 08:05:20;;;;;;;;;14.67;14.00;;;;;27.64;50.94;98428.16;4994427;28;102214;-75
2022/07/23 08:07:53;;;;;;;;;16.00;14.67;;;;;27.65;50.73;98426.19;5000409;27;108917;-75
2022/07/23 08:10:24;;;;;;;;;14.33;14.33;;;;;27.65;50.63;98426.19;5009279;27;103333;-74
2022/07/23 08:12:55;;;;;;;;;13.67;13.67;;;;;27.65;50.71;98420.66;5019694;27;102469;-74
2022/07/23 08:15:22;;;;;;;;;11.00;9.67;;;;;27.65;50.84;98415.88;5002864;27;102469;-74
2022/07/23 08:17:49;;;;;;;;;15.67;15.00;;;;;27.65;50.66;98415.09;5009080;27;104109;-75
2022/07/23 08:20:18;;;;;;;;;16.33;15.67;;;;;27.66;50.48;98406.41;5011609;27;102230;-75
2022/07/23 08:22:52;;;;;;;;;15.00;14.33;;;;;27.64;50.82;98397.59;4995018;28;102130;-73
2022/07/23 08:25:26;;;;;;;;;14.33;14.00;;;;;27.57;50.95;98396.38;5001115;28;102215;-75
2022/07/23 08:27:58;;;;;;;;;15.00;14.00;;;;;27.61;50.73;98389.06;5012296;27;109027;-74
2022/07/23 08:30:26;;;;;;;;;13.33;13.33;;;;;27.56;51.33;98378.88;5015896;27;102164;-76
2022/07/23 08:33:04;;;;;;;;;18.33;16.00;;;;;27.58;50.70;98384.13;4984333;28;102151;-75
2022/07/23 08:35:33;;;;;;;;;15.00;14.00;;;;;27.58;51.29;98370.25;5005139;27;102563;-75
2022/07/23 08:38:01;;;;;;;;;16.33;14.33;;;;;27.58;50.71;98367.47;5011610;27;103916;-75
2022/07/23 08:40:30;;;;;;;;;17.00;15.33;;;;;27.61;50.56;98375.16;5029360;27;102107;-75
2022/07/23 08:42:58;;;;;;;;;19.00;18.67;;;;;27.60;50.80;98371.59;5016344;27;102420;-76
2022/07/23 08:45:25;;;;;;;;;13.00;13.00;;;;;27.63;50.68;98365.38;5010897;27;102250;-76
2022/07/23 08:47:54;;;;;;;;;14.33;11.67;;;;;27.66;50.19;98363.91;4996498;28;104063;-76
2022/07/23 08:50:23;;;;;;;;;18.00;16.67;;;;;27.68;50.05;98361.66;5008784;27;102569;-75
2022/07/23 08:52:50;;;;;;;;;17.67;16.00;;;;;27.69;50.16;98366.91;5001784;27;102139;-76
2022/07/23 08:55:19;;;;;;;;;16.00;13.67;;;;;27.71;50.35;98377.69;5002432;28;102422;-76
2022/07/23 08:57:50;;;;;;;;;15.00;15.00;;;;;27.73;50.12;98369.88;4990606;28;110175;-76
2022/07/23 09:00:17;;;;;;;;;15.33;14.00;;;;;27.74;49.93;98363.19;5007062;27;101984;-76
2022/07/23 09:02:45;;;;;;;;;14.33;14.00;;;;;27.75;49.67;98370.34;5001663;27;102318;-76
2022/07/23 09:05:13;;;;;;;;;13.67;12.67;;;;;27.76;49.68;98372.81;5009855;27;102589;-76
2022/07/23 09:08:11;;;;;;;;;14.33;13.33;;;;;27.78;49.61;98369.72;5006652;27;104665;-77
2022/07/23 09:10:54;;;;;;;;;13.00;13.00;;;;;27.79;49.68;98371.34;5001642;27;102281;-76
2022/07/23 09:13:43;;;;;;;;;13.33;13.33;;;;;27.82;49.83;98376.28;4999085;27;102150;-75
2022/07/23 09:16:18;;;;;;;;;15.33;13.67;;;;;27.83;49.62;98373.16;5000495;27;103166;-76
2022/07/23 09:18:53;;;;;;;;;12.00;12.00;;;;;27.84;49.53;98368.44;5003912;27;108963;-76
2022/07/23 09:21:21;;;;;;;;;12.33;12.33;;;;;27.85;49.35;98378.41;4995013;28;102593;-76
2022/07/23 09:23:58;;;;;;;;;11.33;11.00;;;;;27.86;49.39;98383.66;4986704;28;102425;-75
2022/07/23 09:26:29;;;;;;;;;10.00;10.00;;;;;27.86;48.93;98372.56;4992412;27;102557;-76
2022/07/23 09:29:18;;;;;;;;;12.00;11.00;;;;;27.85;48.91;98370.91;5004513;28;104108;-76
2022/07/23 09:32:05;;;;;;;;;13.67;12.00;;;;;27.86;48.97;98378.09;4991722;28;102244;-75
2022/07/23 09:34:38;;;;;;;;;11.00;10.33;;;;;27.85;49.01;98375.63;5010163;28;102118;-75
2022/07/23 09:37:14;;;;;;;;;11.00;10.67;;;;;27.84;49.33;98368.44;5006435;28;102182;-75
2022/07/23 09:39:42;;;;;;;;;16.67;14.33;;;;;27.84;49.24;98371.22;4993514;28;103415;-76
2022/07/23 09:42:28;;;;;;;;;12.00;11.67;;;;;27.86;48.99;98366.16;4995043;27;102298;-75
2022/07/23 09:44:56;;;;;;;;;11.33;10.00;;;;;27.85;48.88;98370.09;4997460;28;102212;-75
2022/07/23 09:47:27;;;;;;;;;10.33;10.33;;;;;27.84;49.06;98369.25;5019070;27;102842;-75
2022/07/23 09:50:01;;;;;;;;;14.00;11.33;;;;;27.86;49.53;98371.72;4999462;27;104454;-75
2022/07/23 09:52:30;;;;;;;;;10.33;10.00;;;;;27.85;49.53;98365.34;5001094;27;103321;-75
2022/07/23 09:55:04;;;;;;;;;11.00;10.00;;;;;27.86;49.60;98357.84;4978284;28;102461;-75
2022/07/23 09:57:31;;;;;;;;;10.00;9.67;;;;;27.88;49.66;98369.44;4994984;28;104218;-75
2022/07/23 10:00:04;;;;;;;;;11.00;10.33;;;;;27.88;49.22;98363.88;4992216;27;104125;-75
2022/07/23 10:02:34;;;;;;;;;9.00;7.00;;;;;27.87;49.72;98359.47;5002218;27;102350;-75
2022/07/23 10:05:02;;;;;;;;;12.33;11.67;;;;;27.87;49.69;98356.69;5006065;27;102418;-75
2022/07/23 10:07:33;;;;;;;;;12.33;12.00;;;;;27.88;49.48;98358.31;4993395;28;102250;-75
2022/07/23 10:10:00;;;;;;;;;11.33;11.00;;;;;27.86;49.02;98358.66;4988937;27;104087;-75
2022/07/23 10:15:13;;;;;;;;;12.33;12.00;;;;;27.87;49.33;98356.69;4994723;28;102345;-76
2022/07/23 10:17:40;;;;;;;;;16.00;12.67;;;;;27.87;49.51;98351.13;4990861;27;102224;-75
2022/07/23 10:20:07;;;;;;;;;15.00;12.67;;;;;27.86;48.98;98352.28;4994702;28;104108;-75
2022/07/23 10:22:40;;;;;;;;;11.33;11.00;;;;;27.86;49.59;98350.31;5011237;27;102697;-75
2022/07/23 10:25:31;;;;;;;;;10.33;10.33;;;;;27.85;49.58;98348.66;4999718;27;102216;-75
2022/07/23 10:28:25;;;;;;;;;10.33;9.67;;;;;27.86;49.39;98343.94;5008004;27;102630;-75
2022/07/23 10:31:05;;;;;;;;;15.00;11.67;;;;;27.86;49.78;98347.53;5003117;27;108899;-76
2022/07/23 10:33:59;;;;;;;;;11.67;11.00;;;;;27.86;49.54;98346.72;4997739;27;102247;-75
2022/07/23 10:36:45;;;;;;;;;11.33;11.00;;;;;27.86;49.70;98341.16;4996354;27;103361;-75
2022/07/23 10:39:19;;;;;;;;;11.00;10.33;;;;;27.85;49.41;98340.34;5006812;27;102627;-75
2022/07/23 10:41:46;;;;;;;;;12.67;10.67;;;;;27.86;49.22;98341.16;4972593;28;109099;-76
2022/07/23 10:44:15;;;;;;;;;11.67;11.67;;;;;27.86;49.65;98335.59;4977623;28;102413;-75
2022/07/23 10:49:45;;;;;;;;;12.00;12.00;;;;;27.87;49.26;98326.13;4976132;28;102251;-75
2022/07/23 10:52:15;;;;;;;;;11.33;10.67;;;;;27.86;49.15;98322.53;4993210;27;104041;-75
2022/07/23 10:54:42;;;;;;;;;9.67;9.00;;;;;27.85;49.62;98325.63;4973074;28;103514;-75
2022/07/23 10:57:11;;;;;;;;;11.00;11.00;;;;;27.88;49.40;98333.31;4981513;28;102527;-75
2022/07/23 11:02:33;;;;;;;;;13.67;12.67;;;;;27.89;49.65;98318.28;4975707;27;108881;-75
2022/07/23 11:05:01;;;;;;;;;13.00;12.67;;;;;27.88;49.73;98317.44;4987358;28;102109;-75
2022/07/23 11:07:29;;;;;;;;;9.00;9.00;;;;;27.89;49.76;98309.94;4982458;28;103301;-75
2022/07/23 11:09:56;;;;;;;;;14.00;13.00;;;;;27.88;49.31;98308.28;4979347;28;102663;-75
2022/07/23 11:12:23;;;;;;;;;10.00;9.67;;;;;27.89;49.21;98309.94;4991753;28;104220;-75
2022/07/23 11:15:03;;;;;;;;;11.67;11.00;;;;;27.90;49.54;98308.81;4980963;27;102187;-75
2022/07/23 11:17:31;;;;;;;;;14.67;13.33;;;;;27.90;49.60;98312.41;4971312;27;102631;-76
2022/07/23 11:20:15;;;;;;;;;12.33;12.33;;;;;27.91;49.29;98307.66;4975301;28;102383;-75
2022/07/23 11:22:42;;;;;;;;;12.00;12.00;;;;;27.92;49.20;98312.88;4977745;27;104062;-75
2022/07/23 11:25:21;;;;;;;;;13.33;12.67;;;;;27.92;49.34;98303.72;4975362;28;102228;-75
2022/07/23 11:27:50;;;;;;;;;11.33;10.33;;;;;27.93;49.52;98302.59;4967884;28;102098;-75
2022/07/23 11:30:26;;;;;;;;;12.33;11.33;;;;;27.92;49.11;98295.38;4961721;28;102206;-75
2022/07/23 11:32:54;;;;;;;;;13.33;11.67;;;;;27.93;49.25;98294.25;4966358;28;108972;-75
2022/07/23 11:35:23;;;;;;;;;13.00;11.67;;;;;27.93;49.42;98291.47;4982442;27;104710;-74
2022/07/23 11:37:53;;;;;;;;;10.00;10.00;;;;;27.93;49.41;98288.69;4976610;28;103106;-75
2022/07/23 11:40:20;;;;;;;;;12.00;12.00;;;;;27.93;49.41;98286.75;4971573;28;102125;-75